sensor_id;sensor_type;location;lat;lon;timestamp;pressure;altitude;pressure_sealevel;temperature;humidity
53715;BME280;39608;55.630;37.864;2023-03-26T00:00:23;98135.00;;;8.85;72.43
53715;BME280;39608;55.630;37.864;2023-03-26T00:05:25;98133.75;;;8.83;72.26
53715;BME280;39608;55.630;37.864;2023-03-26T00:10:29;98128.81;;;8.85;72.50
53715;BME280;39608;55.630;37.864;2023-03-26T00:15:32;98116.88;;;8.86;72.56
53715;BME280;39608;55.630;37.864;2023-03-26T00:20:35;98146.63;;;8.95;72.26
53715;BME280;39608;55.630;37.864;2023-03-26T00:25:39;98141.69;;;8.97;72.37
53715;BME280;39608;55.630;37.864;2023-03-26T00:30:43;98143.75;;;8.91;72.14
53715;BME280;39608;55.630;37.864;2023-03-26T00:35:45;98152.81;;;8.86;72.30
53715;BME280;39608;55.630;37.864;2023-03-26T00:40:53;98151.25;;;8.94;72.63
53715;BME280;39608;55.630;37.864;2023-03-26T00:45:58;98149.34;;;8.86;72.56
53715;BME280;39608;55.630;37.864;2023-03-26T00:51:01;98140.72;;;8.84;72.14
53715;BME280;39608;55.630;37.864;2023-03-26T00:56:06;98135.19;;;8.89;72.67
53715;BME280;39608;55.630;37.864;2023-03-26T01:01:11;98114.97;;;8.86;72.44
53715;BME280;39608;55.630;37.864;2023-03-26T01:06:17;98103.69;;;8.93;72.35
53715;BME280;39608;55.630;37.864;2023-03-26T01:11:29;98110.69;;;8.94;72.37
53715;BME280;39608;55.630;37.864;2023-03-26T01:16:35;98084.13;;;8.79;72.41
53715;BME280;39608;55.630;37.864;2023-03-26T01:21:37;98102.91;;;8.93;72.17
53715;BME280;39608;55.630;37.864;2023-03-26T01:32:21;98097.00;;;8.99;72.22
53715;BME280;39608;55.630;37.864;2023-03-26T01:37:28;98103.06;;;8.87;72.22
53715;BME280;39608;55.630;37.864;2023-03-26T01:42:40;98089.03;;;8.85;72.27
53715;BME280;39608;55.630;37.864;2023-03-26T01:47:44;98074.75;;;8.76;72.19
53715;BME280;39608;55.630;37.864;2023-03-26T01:52:47;98087.63;;;8.70;71.92
53715;BME280;39608;55.630;37.864;2023-03-26T01:57:56;98086.34;;;8.68;72.42
53715;BME280;39608;55.630;37.864;2023-03-26T02:03:12;98082.06;;;8.76;72.30
53715;BME280;39608;55.630;37.864;2023-03-26T02:08:22;98078.72;;;8.70;72.04
53715;BME280;39608;55.630;37.864;2023-03-26T02:13:26;98069.31;;;8.67;72.38
53715;BME280;39608;55.630;37.864;2023-03-26T02:18:29;98080.00;;;8.64;72.24
53715;BME280;39608;55.630;37.864;2023-03-26T02:23:36;98070.94;;;8.60;72.43
53715;BME280;39608;55.630;37.864;2023-03-26T02:28:41;98068.06;;;8.65;72.40
53715;BME280;39608;55.630;37.864;2023-03-26T02:33:43;98075.53;;;8.59;71.69
53715;BME280;39608;55.630;37.864;2023-03-26T02:38:47;98064.56;;;8.55;71.94
53715;BME280;39608;55.630;37.864;2023-03-26T02:43:50;98060.25;;;8.54;71.93
53715;BME280;39608;55.630;37.864;2023-03-26T02:48:52;98045.78;;;8.42;71.41
53715;BME280;39608;55.630;37.864;2023-03-26T02:53:54;98050.22;;;8.37;71.50
53715;BME280;39608;55.630;37.864;2023-03-26T02:58:57;98052.13;;;8.37;71.62
53715;BME280;39608;55.630;37.864;2023-03-26T03:04:01;98049.09;;;8.30;71.34
53715;BME280;39608;55.630;37.864;2023-03-26T03:09:03;98037.16;;;8.22;71.18
53715;BME280;39608;55.630;37.864;2023-03-26T03:14:07;98037.47;;;8.12;70.87
53715;BME280;39608;55.630;37.864;2023-03-26T03:19:09;98024.41;;;7.96;70.37
53715;BME280;39608;55.630;37.864;2023-03-26T03:24:11;98034.22;;;7.83;70.81
53715;BME280;39608;55.630;37.864;2023-03-26T03:29:14;98033.88;;;7.76;71.33
53715;BME280;39608;55.630;37.864;2023-03-26T03:34:16;98032.00;;;7.77;71.58
53715;BME280;39608;55.630;37.864;2023-03-26T03:39:18;98014.19;;;7.76;71.57
53715;BME280;39608;55.630;37.864;2023-03-26T03:44:22;98014.09;;;7.90;71.58
53715;BME280;39608;55.630;37.864;2023-03-26T03:49:24;98017.88;;;7.88;71.91
53715;BME280;39608;55.630;37.864;2023-03-26T03:54:26;98017.09;;;7.88;71.91
53715;BME280;39608;55.630;37.864;2023-03-26T03:59:30;98007.84;;;7.80;72.08
53715;BME280;39608;55.630;37.864;2023-03-26T04:04:32;97994.66;;;7.70;72.14
53715;BME280;39608;55.630;37.864;2023-03-26T04:09:34;98006.56;;;7.69;72.58
53715;BME280;39608;55.630;37.864;2023-03-26T04:14:37;98002.00;;;7.78;72.44
53715;BME280;39608;55.630;37.864;2023-03-26T04:19:39;97991.81;;;7.75;72.55
53715;BME280;39608;55.630;37.864;2023-03-26T04:24:43;97986.13;;;7.85;72.61
53715;BME280;39608;55.630;37.864;2023-03-26T04:29:48;97977.41;;;7.97;72.63
53715;BME280;39608;55.630;37.864;2023-03-26T04:34:50;97978.03;;;7.94;72.17
53715;BME280;39608;55.630;37.864;2023-03-26T04:39:52;97968.06;;;7.95;71.94
53715;BME280;39608;55.630;37.864;2023-03-26T04:44:56;97966.78;;;7.92;72.33
53715;BME280;39608;55.630;37.864;2023-03-26T04:49:59;97962.47;;;7.91;72.18
53715;BME280;39608;55.630;37.864;2023-03-26T04:55:01;97954.38;;;7.91;72.38
53715;BME280;39608;55.630;37.864;2023-03-26T05:00:06;97940.09;;;7.99;72.65
53715;BME280;39608;55.630;37.864;2023-03-26T05:05:14;97944.22;;;8.05;72.40
53715;BME280;39608;55.630;37.864;2023-03-26T05:10:16;97940.28;;;8.12;72.52
53715;BME280;39608;55.630;37.864;2023-03-26T05:15:21;97940.28;;;8.20;72.80
53715;BME280;39608;55.630;37.864;2023-03-26T05:20:25;97913.41;;;8.15;72.62
53715;BME280;39608;55.630;37.864;2023-03-26T05:25:27;97929.16;;;8.22;72.51
53715;BME280;39608;55.630;37.864;2023-03-26T05:30:31;97916.59;;;8.17;72.17
53715;BME280;39608;55.630;37.864;2023-03-26T05:35:33;97918.19;;;8.18;72.47
53715;BME280;39608;55.630;37.864;2023-03-26T05:40:35;97930.75;;;8.23;72.21
53715;BME280;39608;55.630;37.864;2023-03-26T05:45:38;97918.97;;;8.28;72.33
53715;BME280;39608;55.630;37.864;2023-03-26T05:50:40;97921.22;;;8.26;72.47
53715;BME280;39608;55.630;37.864;2023-03-26T05:55:43;97915.66;;;8.22;72.55
53715;BME280;39608;55.630;37.864;2023-03-26T06:00:47;97903.41;;;8.25;72.50
53715;BME280;39608;55.630;37.864;2023-03-26T06:05:50;97905.47;;;8.19;72.36
53715;BME280;39608;55.630;37.864;2023-03-26T06:10:58;97898.66;;;8.21;72.60
53715;BME280;39608;55.630;37.864;2023-03-26T06:16:01;97891.66;;;8.12;72.56
53715;BME280;39608;55.630;37.864;2023-03-26T06:21:04;97889.13;;;8.07;72.65
53715;BME280;39608;55.630;37.864;2023-03-26T06:26:07;97881.66;;;8.03;72.56
53715;BME280;39608;55.630;37.864;2023-03-26T06:31:10;97872.16;;;8.06;73.15
53715;BME280;39608;55.630;37.864;2023-03-26T06:36:12;97874.53;;;8.08;72.73
53715;BME280;39608;55.630;37.864;2023-03-26T06:41:14;97867.53;;;8.07;72.72
53715;BME280;39608;55.630;37.864;2023-03-26T06:46:17;97860.22;;;8.07;72.78
53715;BME280;39608;55.630;37.864;2023-03-26T06:51:20;97861.34;;;8.06;72.96
53715;BME280;39608;55.630;37.864;2023-03-26T06:56:22;97851.81;;;8.00;72.95
53715;BME280;39608;55.630;37.864;2023-03-26T07:01:27;97845.31;;;8.01;73.23
53715;BME280;39608;55.630;37.864;2023-03-26T07:06:29;97844.53;;;8.00;73.31
53715;BME280;39608;55.630;37.864;2023-03-26T07:11:32;97847.03;;;8.05;73.14
53715;BME280;39608;55.630;37.864;2023-03-26T07:16:35;97841.47;;;8.11;73.36
53715;BME280;39608;55.630;37.864;2023-03-26T07:21:38;97851.50;;;8.10;73.51
53715;BME280;39608;55.630;37.864;2023-03-26T07:26:49;97818.41;;;8.31;73.54
53715;BME280;39608;55.630;37.864;2023-03-26T07:32:01;97807.91;;;8.29;73.15
53715;BME280;39608;55.630;37.864;2023-03-26T07:37:14;97815.38;;;8.41;73.34
53715;BME280;39608;55.630;37.864;2023-03-26T07:42:30;97800.63;;;8.30;73.34
53715;BME280;39608;55.630;37.864;2023-03-26T07:47:36;97796.94;;;8.34;73.49
53715;BME280;39608;55.630;37.864;2023-03-26T07:52:39;97804.41;;;8.37;73.09
53715;BME280;39608;55.630;37.864;2023-03-26T07:57:50;97790.75;;;8.43;73.22
53715;BME280;39608;55.630;37.864;2023-03-26T08:08:28;97818.88;;;8.33;73.62
53715;BME280;39608;55.630;37.864;2023-03-26T08:13:39;97793.63;;;8.29;73.55
53715;BME280;39608;55.630;37.864;2023-03-26T08:18:52;97790.13;;;8.37;73.60
53715;BME280;39608;55.630;37.864;2023-03-26T08:24:01;97796.13;;;8.43;73.79
53715;BME280;39608;55.630;37.864;2023-03-26T08:29:14;97779.59;;;8.44;73.76
53715;BME280;39608;55.630;37.864;2023-03-26T08:34:20;97771.00;;;8.42;73.35
53715;BME280;39608;55.630;37.864;2023-03-26T08:39:22;97767.06;;;8.39;73.22
53715;BME280;39608;55.630;37.864;2023-03-26T08:50:39;97766.91;;;8.83;72.31
53715;BME280;39608;55.630;37.864;2023-03-26T08:55:51;97743.81;;;8.56;73.06
53715;BME280;39608;55.630;37.864;2023-03-26T09:01:20;97745.69;;;8.64;73.46
53715;BME280;39608;55.630;37.864;2023-03-26T09:06:48;97746.94;;;8.67;73.42
53715;BME280;39608;55.630;37.864;2023-03-26T09:12:30;97738.34;;;8.73;73.08
53715;BME280;39608;55.630;37.864;2023-03-26T09:18:06;97738.06;;;8.66;73.31
53715;BME280;39608;55.630;37.864;2023-03-26T09:29:26;97743.25;;;8.71;73.62
53715;BME280;39608;55.630;37.864;2023-03-26T09:34:57;97721.66;;;8.71;73.62
53715;BME280;39608;55.630;37.864;2023-03-26T09:40:14;97720.09;;;8.70;73.49
53715;BME280;39608;55.630;37.864;2023-03-26T09:45:41;97693.50;;;8.72;74.07
53715;BME280;39608;55.630;37.864;2023-03-26T09:50:54;97692.34;;;8.82;73.59
53715;BME280;39608;55.630;37.864;2023-03-26T09:56:10;97690.91;;;8.85;73.43
53715;BME280;39608;55.630;37.864;2023-03-26T10:01:26;97703.41;;;8.89;73.66
53715;BME280;39608;55.630;37.864;2023-03-26T10:06:38;97700.13;;;8.84;73.11
53715;BME280;39608;55.630;37.864;2023-03-26T10:12:02;97701.63;;;8.94;73.44
53715;BME280;39608;55.630;37.864;2023-03-26T10:17:25;97694.66;;;8.93;73.37
53715;BME280;39608;55.630;37.864;2023-03-26T10:22:44;97692.41;;;8.95;73.46
53715;BME280;39608;55.630;37.864;2023-03-26T10:27:57;97674.28;;;8.95;73.32
53715;BME280;39608;55.630;37.864;2023-03-26T10:33:12;97679.31;;;9.05;73.52
53715;BME280;39608;55.630;37.864;2023-03-26T10:38:23;97659.63;;;8.96;73.35
53715;BME280;39608;55.630;37.864;2023-03-26T10:49:33;97677.78;;;9.17;73.00
53715;BME280;39608;55.630;37.864;2023-03-26T10:54:48;97671.44;;;9.13;73.27
53715;BME280;39608;55.630;37.864;2023-03-26T10:59:54;97660.16;;;9.11;73.34
53715;BME280;39608;55.630;37.864;2023-03-26T11:05:16;97648.47;;;9.19;73.38
53715;BME280;39608;55.630;37.864;2023-03-26T11:10:34;97658.84;;;9.17;73.68
53715;BME280;39608;55.630;37.864;2023-03-26T11:15:45;97655.16;;;9.21;73.12
53715;BME280;39608;55.630;37.864;2023-03-26T11:20:57;97663.72;;;9.23;73.29
53715;BME280;39608;55.630;37.864;2023-03-26T11:26:12;97660.69;;;9.25;73.17
53715;BME280;39608;55.630;37.864;2023-03-26T11:31:20;97649.03;;;9.12;73.07
53715;BME280;39608;55.630;37.864;2023-03-26T11:36:30;97655.34;;;9.16;73.41
53715;BME280;39608;55.630;37.864;2023-03-26T11:41:35;97656.34;;;9.12;73.26
53715;BME280;39608;55.630;37.864;2023-03-26T11:46:39;97652.19;;;9.14;73.32
53715;BME280;39608;55.630;37.864;2023-03-26T11:51:46;97632.91;;;9.16;73.63
53715;BME280;39608;55.630;37.864;2023-03-26T11:56:51;97643.94;;;9.11;73.31
53715;BME280;39608;55.630;37.864;2023-03-26T12:01:57;97614.78;;;8.95;73.26
53715;BME280;39608;55.630;37.864;2023-03-26T12:07:08;97643.28;;;9.14;73.61
53715;BME280;39608;55.630;37.864;2023-03-26T12:12:16;97644.75;;;9.11;73.54
53715;BME280;39608;55.630;37.864;2023-03-26T12:17:26;97651.06;;;9.15;73.89
53715;BME280;39608;55.630;37.864;2023-03-26T12:22:34;97639.34;;;9.11;73.67
53715;BME280;39608;55.630;37.864;2023-03-26T12:27:41;97626.34;;;9.04;73.78
53715;BME280;39608;55.630;37.864;2023-03-26T12:32:44;97615.47;;;8.92;73.75
53715;BME280;39608;55.630;37.864;2023-03-26T12:37:49;97609.38;;;8.95;73.96
53715;BME280;39608;55.630;37.864;2023-03-26T12:42:52;97605.47;;;8.93;73.88
53715;BME280;39608;55.630;37.864;2023-03-26T12:47:56;97589.63;;;8.82;73.75
53715;BME280;39608;55.630;37.864;2023-03-26T12:53:17;97613.50;;;9.01;74.10
53715;BME280;39608;55.630;37.864;2023-03-26T12:58:53;97610.44;;;9.03;73.40
53715;BME280;39608;55.630;37.864;2023-03-26T13:04:15;97606.25;;;8.93;73.86
53715;BME280;39608;55.630;37.864;2023-03-26T13:09:45;97608.94;;;8.93;73.83
53715;BME280;39608;55.630;37.864;2023-03-26T13:15:08;97619.09;;;8.96;73.46
53715;BME280;39608;55.630;37.864;2023-03-26T13:20:18;97615.66;;;8.87;74.08
53715;BME280;39608;55.630;37.864;2023-03-26T13:25:32;97596.22;;;8.72;74.08
53715;BME280;39608;55.630;37.864;2023-03-26T13:30:44;97610.47;;;8.82;74.15
53715;BME280;39608;55.630;37.864;2023-03-26T13:35:54;97608.53;;;8.82;73.63
53715;BME280;39608;55.630;37.864;2023-03-26T13:41:05;97604.13;;;8.78;73.67
53715;BME280;39608;55.630;37.864;2023-03-26T13:46:20;97606.38;;;8.76;73.78
53715;BME280;39608;55.630;37.864;2023-03-26T13:51:29;97609.28;;;8.70;73.90
53715;BME280;39608;55.630;37.864;2023-03-26T13:56:38;97573.81;;;8.51;73.93
53715;BME280;39608;55.630;37.864;2023-03-26T14:01:46;97598.06;;;8.60;74.01
53715;BME280;39608;55.630;37.864;2023-03-26T14:06:54;97610.97;;;8.54;74.00
53715;BME280;39608;55.630;37.864;2023-03-26T14:12:13;97592.53;;;8.77;72.40
53715;BME280;39608;55.630;37.864;2023-03-26T14:17:19;97602.41;;;8.52;73.84
53715;BME280;39608;55.630;37.864;2023-03-26T14:22:29;97587.06;;;8.35;74.10
53715;BME280;39608;55.630;37.864;2023-03-26T14:27:45;97592.91;;;8.46;74.11
53715;BME280;39608;55.630;37.864;2023-03-26T14:33:04;97600.72;;;8.38;74.39
53715;BME280;39608;55.630;37.864;2023-03-26T14:38:30;97604.50;;;8.46;74.51
53715;BME280;39608;55.630;37.864;2023-03-26T14:43:58;97607.19;;;8.46;74.00
53715;BME280;39608;55.630;37.864;2023-03-26T14:49:21;97602.31;;;8.39;73.96
53715;BME280;39608;55.630;37.864;2023-03-26T14:54:31;97582.06;;;8.25;74.31
53715;BME280;39608;55.630;37.864;2023-03-26T14:59:54;97599.00;;;8.34;74.38
53715;BME280;39608;55.630;37.864;2023-03-26T15:11:11;97589.44;;;8.36;74.06
53715;BME280;39608;55.630;37.864;2023-03-26T15:16:48;97583.09;;;8.32;73.94
53715;BME280;39608;55.630;37.864;2023-03-26T15:22:23;97595.31;;;8.38;74.44
53715;BME280;39608;55.630;37.864;2023-03-26T15:39:23;97580.88;;;8.34;74.71
53715;BME280;39608;55.630;37.864;2023-03-26T15:44:49;97588.22;;;8.34;74.42
53715;BME280;39608;55.630;37.864;2023-03-26T15:50:00;97583.44;;;8.31;74.37
53715;BME280;39608;55.630;37.864;2023-03-26T15:55:24;97574.63;;;8.21;74.53
53715;BME280;39608;55.630;37.864;2023-03-26T16:00:30;97580.78;;;8.22;74.84
53715;BME280;39608;55.630;37.864;2023-03-26T16:05:43;97591.41;;;8.27;74.54
53715;BME280;39608;55.630;37.864;2023-03-26T16:10:51;97603.34;;;8.26;74.47
53715;BME280;39608;55.630;37.864;2023-03-26T16:15:53;97589.63;;;8.10;74.58
53715;BME280;39608;55.630;37.864;2023-03-26T16:21:24;97587.88;;;8.35;74.34
53715;BME280;39608;55.630;37.864;2023-03-26T16:26:36;97603.81;;;8.28;74.56
53715;BME280;39608;55.630;37.864;2023-03-26T16:32:04;97598.84;;;8.30;74.57
53715;BME280;39608;55.630;37.864;2023-03-26T16:37:40;97602.00;;;8.32;74.47
53715;BME280;39608;55.630;37.864;2023-03-26T16:42:48;97590.50;;;8.23;74.34
53715;BME280;39608;55.630;37.864;2023-03-26T16:48:00;97593.19;;;8.23;74.72
53715;BME280;39608;55.630;37.864;2023-03-26T16:53:22;97589.81;;;8.26;74.61
53715;BME280;39608;55.630;37.864;2023-03-26T16:58:35;97584.94;;;8.19;74.51
53715;BME280;39608;55.630;37.864;2023-03-26T17:03:48;97609.84;;;8.25;74.43
53715;BME280;39608;55.630;37.864;2023-03-26T17:09:01;97592.72;;;8.21;74.43
53715;BME280;39608;55.630;37.864;2023-03-26T17:14:22;97606.19;;;8.30;74.73
53715;BME280;39608;55.630;37.864;2023-03-26T17:19:32;97606.81;;;8.27;74.45
53715;BME280;39608;55.630;37.864;2023-03-26T17:24:41;97606.22;;;8.21;74.79
53715;BME280;39608;55.630;37.864;2023-03-26T17:29:59;97611.72;;;8.33;74.63
53715;BME280;39608;55.630;37.864;2023-03-26T17:35:09;97608.72;;;8.26;74.33
53715;BME280;39608;55.630;37.864;2023-03-26T17:40:48;97607.72;;;8.39;74.45
53715;BME280;39608;55.630;37.864;2023-03-26T17:45:57;97592.72;;;8.21;74.41
53715;BME280;39608;55.630;37.864;2023-03-26T17:51:02;97600.78;;;8.30;74.40
53715;BME280;39608;55.630;37.864;2023-03-26T17:56:13;97597.09;;;8.34;74.31
53715;BME280;39608;55.630;37.864;2023-03-26T18:01:23;97593.84;;;8.20;74.89
53715;BME280;39608;55.630;37.864;2023-03-26T18:06:41;97594.97;;;8.19;75.20
53715;BME280;39608;55.630;37.864;2023-03-26T18:12:11;97601.84;;;8.37;74.61
53715;BME280;39608;55.630;37.864;2023-03-26T18:17:20;97597.16;;;8.26;74.35
53715;BME280;39608;55.630;37.864;2023-03-26T18:22:24;97588.91;;;8.22;74.38
53715;BME280;39608;55.630;37.864;2023-03-26T18:27:34;97591.22;;;8.32;74.43
53715;BME280;39608;55.630;37.864;2023-03-26T18:32:48;97580.88;;;8.34;74.33
53715;BME280;39608;55.630;37.864;2023-03-26T18:37:54;97585.22;;;8.27;74.22
53715;BME280;39608;55.630;37.864;2023-03-26T18:42:58;97579.69;;;8.23;74.23
53715;BME280;39608;55.630;37.864;2023-03-26T18:48:05;97589.38;;;8.24;74.96
53715;BME280;39608;55.630;37.864;2023-03-26T18:53:15;97581.72;;;8.26;74.53
53715;BME280;39608;55.630;37.864;2023-03-26T18:58:22;97571.59;;;8.23;74.47
53715;BME280;39608;55.630;37.864;2023-03-26T19:03:28;97584.28;;;8.22;74.73
53715;BME280;39608;55.630;37.864;2023-03-26T19:08:32;97581.47;;;8.19;74.59
53715;BME280;39608;55.630;37.864;2023-03-26T19:13:35;97581.97;;;8.12;74.86
53715;BME280;39608;55.630;37.864;2023-03-26T19:18:40;97581.47;;;8.19;74.73
53715;BME280;39608;55.630;37.864;2023-03-26T19:23:44;97576.22;;;8.14;75.05
53715;BME280;39608;55.630;37.864;2023-03-26T19:28:49;97575.31;;;8.10;75.35
53715;BME280;39608;55.630;37.864;2023-03-26T19:33:57;97569.41;;;8.16;75.30
53715;BME280;39608;55.630;37.864;2023-03-26T19:39:10;97561.13;;;8.21;74.79
53715;BME280;39608;55.630;37.864;2023-03-26T19:44:18;97550.03;;;8.14;74.98
53715;BME280;39608;55.630;37.864;2023-03-26T19:49:28;97557.16;;;8.19;75.23
53715;BME280;39608;55.630;37.864;2023-03-26T19:54:43;97555.38;;;8.23;75.02
53715;BME280;39608;55.630;37.864;2023-03-26T19:59:45;97565.66;;;8.09;75.13
53715;BME280;39608;55.630;37.864;2023-03-26T20:04:50;97569.13;;;8.09;75.30
53715;BME280;39608;55.630;37.864;2023-03-26T20:09:53;97562.13;;;8.08;74.95
53715;BME280;39608;55.630;37.864;2023-03-26T20:14:55;97569.91;;;8.10;74.80
53715;BME280;39608;55.630;37.864;2023-03-26T20:19:59;97566.09;;;8.11;75.24
53715;BME280;39608;55.630;37.864;2023-03-26T20:25:18;97560.97;;;8.18;75.22
53715;BME280;39608;55.630;37.864;2023-03-26T20:30:21;97555.97;;;8.08;74.95
53715;BME280;39608;55.630;37.864;2023-03-26T20:35:25;97557.34;;;8.14;74.81
53715;BME280;39608;55.630;37.864;2023-03-26T20:40:27;97555.47;;;8.05;74.72
53715;BME280;39608;55.630;37.864;2023-03-26T20:45:30;97559.75;;;8.07;74.64
53715;BME280;39608;55.630;37.864;2023-03-26T20:50:33;97566.75;;;8.08;74.68
53715;BME280;39608;55.630;37.864;2023-03-26T20:55:35;97567.41;;;8.04;74.62
53715;BME280;39608;55.630;37.864;2023-03-26T21:00:37;97578.22;;;8.04;74.49
53715;BME280;39608;55.630;37.864;2023-03-26T21:05:41;97568.97;;;8.05;74.54
53715;BME280;39608;55.630;37.864;2023-03-26T21:10:45;97562.19;;;7.99;74.58
53715;BME280;39608;55.630;37.864;2023-03-26T21:15:48;97573.63;;;7.96;74.21
53715;BME280;39608;55.630;37.864;2023-03-26T21:20:57;97575.81;;;8.03;74.27
53715;BME280;39608;55.630;37.864;2023-03-26T21:26:06;97573.16;;;7.94;74.05
53715;BME280;39608;55.630;37.864;2023-03-26T21:31:13;97580.81;;;7.83;74.06
53715;BME280;39608;55.630;37.864;2023-03-26T21:36:19;97584.78;;;7.86;73.71
53715;BME280;39608;55.630;37.864;2023-03-26T21:41:29;97591.94;;;7.82;73.71
53715;BME280;39608;55.630;37.864;2023-03-26T21:46:35;97605.03;;;7.71;73.60
53715;BME280;39608;55.630;37.864;2023-03-26T21:51:39;97605.03;;;7.71;73.61
53715;BME280;39608;55.630;37.864;2023-03-26T21:56:46;97599.78;;;7.66;73.31
53715;BME280;39608;55.630;37.864;2023-03-26T22:01:56;97597.75;;;7.54;73.38
53715;BME280;39608;55.630;37.864;2023-03-26T22:07:08;97616.19;;;7.52;73.62
53715;BME280;39608;55.630;37.864;2023-03-26T22:12:12;97618.59;;;7.36;73.44
53715;BME280;39608;55.630;37.864;2023-03-26T22:17:14;97615.59;;;7.20;73.34
53715;BME280;39608;55.630;37.864;2023-03-26T22:22:17;97624.78;;;7.19;73.25
53715;BME280;39608;55.630;37.864;2023-03-26T22:27:21;97615.63;;;7.11;73.24
53715;BME280;39608;55.630;37.864;2023-03-26T22:32:23;97632.44;;;7.08;73.38
53715;BME280;39608;55.630;37.864;2023-03-26T22:37:27;97625.44;;;7.07;73.31
53715;BME280;39608;55.630;37.864;2023-03-26T22:42:28;97626.41;;;7.02;72.91
53715;BME280;39608;55.630;37.864;2023-03-26T22:47:31;97630.22;;;7.01;73.18
53715;BME280;39608;55.630;37.864;2023-03-26T22:52:36;97636.25;;;6.98;72.84
53715;BME280;39608;55.630;37.864;2023-03-26T22:57:40;97628.31;;;6.84;72.46
53715;BME280;39608;55.630;37.864;2023-03-26T23:02:42;97640.66;;;6.77;72.55
53715;BME280;39608;55.630;37.864;2023-03-26T23:07:46;97647.81;;;6.81;72.39
53715;BME280;39608;55.630;37.864;2023-03-26T23:12:48;97638.13;;;6.72;72.44
53715;BME280;39608;55.630;37.864;2023-03-26T23:17:51;97631.63;;;6.73;72.38
53715;BME280;39608;55.630;37.864;2023-03-26T23:22:54;97637.81;;;6.82;72.24
53715;BME280;39608;55.630;37.864;2023-03-26T23:27:56;97631.94;;;6.80;71.99
53715;BME280;39608;55.630;37.864;2023-03-26T23:32:58;97638.59;;;6.82;71.86
53715;BME280;39608;55.630;37.864;2023-03-26T23:38:02;97641.13;;;6.88;71.94
53715;BME280;39608;55.630;37.864;2023-03-26T23:43:06;97641.47;;;6.86;71.77
53715;BME280;39608;55.630;37.864;2023-03-26T23:48:08;97646.53;;;6.88;71.70
53715;BME280;39608;55.630;37.864;2023-03-26T23:53:11;97637.66;;;6.87;71.51
53715;BME280;39608;55.630;37.864;2023-03-26T23:58:14;97635.13;;;6.82;71.46
